sensor_id;sensor_type;location;lat;lon;timestamp;P1;durP1;ratioP1;P2;durP2;ratioP2
46561;SDS011;32289;42.688;23.330;2023-12-22T00:03:36;29.73;;;13.88;;
46561;SDS011;32289;42.688;23.330;2023-12-22T00:07:17;32.42;;;12.98;;
46561;SDS011;32289;42.688;23.330;2023-12-22T00:11:00;36.75;;;13.20;;
46561;SDS011;32289;42.688;23.330;2023-12-22T00:14:40;29.77;;;12.00;;
46561;SDS011;32289;42.688;23.330;2023-12-22T00:18:21;27.80;;;12.13;;
46561;SDS011;32289;42.688;23.330;2023-12-22T00:22:02;30.42;;;12.18;;
46561;SDS011;32289;42.688;23.330;2023-12-22T00:25:43;25.50;;;11.23;;
46561;SDS011;32289;42.688;23.330;2023-12-22T00:29:24;36.38;;;12.20;;
46561;SDS011;32289;42.688;23.330;2023-12-22T00:33:05;28.23;;;11.13;;
46561;SDS011;32289;42.688;23.330;2023-12-22T00:36:46;30.42;;;11.80;;
46561;SDS011;32289;42.688;23.330;2023-12-22T00:40:26;25.58;;;11.45;;
46561;SDS011;32289;42.688;23.330;2023-12-22T00:44:07;36.70;;;13.10;;
46561;SDS011;32289;42.688;23.330;2023-12-22T00:47:48;29.30;;;13.13;;
46561;SDS011;32289;42.688;23.330;2023-12-22T00:51:28;30.13;;;12.68;;
46561;SDS011;32289;42.688;23.330;2023-12-22T00:55:09;30.05;;;13.73;;
46561;SDS011;32289;42.688;23.330;2023-12-22T00:58:50;32.10;;;12.45;;
46561;SDS011;32289;42.688;23.330;2023-12-22T01:02:30;36.63;;;13.77;;
46561;SDS011;32289;42.688;23.330;2023-12-22T01:06:11;27.02;;;11.98;;
46561;SDS011;32289;42.688;23.330;2023-12-22T01:09:52;24.33;;;11.20;;
46561;SDS011;32289;42.688;23.330;2023-12-22T01:13:32;29.40;;;11.73;;
46561;SDS011;32289;42.688;23.330;2023-12-22T01:17:13;28.15;;;11.57;;
46561;SDS011;32289;42.688;23.330;2023-12-22T01:20:54;27.58;;;11.85;;
46561;SDS011;32289;42.688;23.330;2023-12-22T01:24:34;31.10;;;12.90;;
46561;SDS011;32289;42.688;23.330;2023-12-22T01:28:19;39.35;;;15.90;;
46561;SDS011;32289;42.688;23.330;2023-12-22T01:32:00;29.63;;;11.80;;
46561;SDS011;32289;42.688;23.330;2023-12-22T01:35:40;25.98;;;11.40;;
46561;SDS011;32289;42.688;23.330;2023-12-22T01:39:21;27.25;;;11.50;;
46561;SDS011;32289;42.688;23.330;2023-12-22T01:43:02;27.42;;;10.68;;
46561;SDS011;32289;42.688;23.330;2023-12-22T01:46:43;28.63;;;11.50;;
46561;SDS011;32289;42.688;23.330;2023-12-22T01:50:23;23.88;;;10.10;;
46561;SDS011;32289;42.688;23.330;2023-12-22T01:54:05;23.17;;;11.02;;
46561;SDS011;32289;42.688;23.330;2023-12-22T01:57:46;25.55;;;10.80;;
46561;SDS011;32289;42.688;23.330;2023-12-22T02:01:28;25.35;;;10.60;;
46561;SDS011;32289;42.688;23.330;2023-12-22T02:05:09;31.52;;;10.57;;
46561;SDS011;32289;42.688;23.330;2023-12-22T02:08:51;22.67;;;10.30;;
46561;SDS011;32289;42.688;23.330;2023-12-22T02:12:32;18.15;;;9.52;;
46561;SDS011;32289;42.688;23.330;2023-12-22T02:20:08;25.40;;;10.10;;
46561;SDS011;32289;42.688;23.330;2023-12-22T02:23:50;25.48;;;10.25;;
46561;SDS011;32289;42.688;23.330;2023-12-22T02:31:19;20.00;;;9.20;;
46561;SDS011;32289;42.688;23.330;2023-12-22T02:35:25;38.30;;;15.18;;
46561;SDS011;32289;42.688;23.330;2023-12-22T02:39:08;36.22;;;14.35;;
46561;SDS011;32289;42.688;23.330;2023-12-22T02:42:50;32.63;;;12.07;;
46561;SDS011;32289;42.688;23.330;2023-12-22T02:46:33;32.53;;;15.50;;
46561;SDS011;32289;42.688;23.330;2023-12-22T02:50:14;38.30;;;16.02;;
46561;SDS011;32289;42.688;23.330;2023-12-22T02:53:56;33.60;;;13.88;;
46561;SDS011;32289;42.688;23.330;2023-12-22T02:57:37;34.40;;;15.30;;
46561;SDS011;32289;42.688;23.330;2023-12-22T03:01:17;33.65;;;13.05;;
46561;SDS011;32289;42.688;23.330;2023-12-22T03:04:58;36.08;;;13.93;;
46561;SDS011;32289;42.688;23.330;2023-12-22T03:08:39;34.97;;;12.65;;
46561;SDS011;32289;42.688;23.330;2023-12-22T03:12:20;27.88;;;13.68;;
46561;SDS011;32289;42.688;23.330;2023-12-22T03:16:01;27.25;;;12.15;;
46561;SDS011;32289;42.688;23.330;2023-12-22T03:19:42;31.25;;;11.50;;
46561;SDS011;32289;42.688;23.330;2023-12-22T03:23:22;27.75;;;12.93;;
46561;SDS011;32289;42.688;23.330;2023-12-22T03:27:03;25.73;;;11.00;;
46561;SDS011;32289;42.688;23.330;2023-12-22T03:30:44;27.02;;;11.25;;
46561;SDS011;32289;42.688;23.330;2023-12-22T03:34:25;23.75;;;10.60;;
46561;SDS011;32289;42.688;23.330;2023-12-22T03:38:05;24.85;;;12.02;;
46561;SDS011;32289;42.688;23.330;2023-12-22T03:41:46;28.10;;;10.90;;
46561;SDS011;32289;42.688;23.330;2023-12-22T03:45:27;29.23;;;11.73;;
46561;SDS011;32289;42.688;23.330;2023-12-22T03:49:08;28.02;;;10.30;;
46561;SDS011;32289;42.688;23.330;2023-12-22T03:52:48;31.67;;;10.07;;
46561;SDS011;32289;42.688;23.330;2023-12-22T03:56:29;20.85;;;10.35;;
46561;SDS011;32289;42.688;23.330;2023-12-22T04:00:10;22.42;;;9.80;;
46561;SDS011;32289;42.688;23.330;2023-12-22T04:03:51;23.88;;;8.95;;
46561;SDS011;32289;42.688;23.330;2023-12-22T04:07:32;21.88;;;9.73;;
46561;SDS011;32289;42.688;23.330;2023-12-22T04:11:18;21.67;;;9.52;;
46561;SDS011;32289;42.688;23.330;2023-12-22T04:14:58;25.92;;;11.50;;
46561;SDS011;32289;42.688;23.330;2023-12-22T04:18:39;17.42;;;8.85;;
46561;SDS011;32289;42.688;23.330;2023-12-22T04:22:20;29.25;;;11.38;;
46561;SDS011;32289;42.688;23.330;2023-12-22T04:26:00;36.88;;;14.07;;
46561;SDS011;32289;42.688;23.330;2023-12-22T04:29:42;24.15;;;11.50;;
46561;SDS011;32289;42.688;23.330;2023-12-22T04:33:22;25.63;;;11.65;;
46561;SDS011;32289;42.688;23.330;2023-12-22T04:37:03;27.83;;;9.70;;
46561;SDS011;32289;42.688;23.330;2023-12-22T04:40:44;30.25;;;11.80;;
46561;SDS011;32289;42.688;23.330;2023-12-22T04:44:24;27.88;;;10.43;;
46561;SDS011;32289;42.688;23.330;2023-12-22T04:48:05;21.08;;;9.98;;
46561;SDS011;32289;42.688;23.330;2023-12-22T04:51:46;24.95;;;9.63;;
46561;SDS011;32289;42.688;23.330;2023-12-22T04:55:27;30.13;;;11.70;;
46561;SDS011;32289;42.688;23.330;2023-12-22T04:59:08;23.23;;;10.10;;
46561;SDS011;32289;42.688;23.330;2023-12-22T05:02:52;22.08;;;9.88;;
46561;SDS011;32289;42.688;23.330;2023-12-22T05:06:32;21.88;;;9.77;;
46561;SDS011;32289;42.688;23.330;2023-12-22T05:10:15;21.95;;;9.40;;
46561;SDS011;32289;42.688;23.330;2023-12-22T05:13:56;25.13;;;10.25;;
46561;SDS011;32289;42.688;23.330;2023-12-22T05:17:36;19.83;;;8.75;;
46561;SDS011;32289;42.688;23.330;2023-12-22T05:21:17;20.17;;;9.63;;
46561;SDS011;32289;42.688;23.330;2023-12-22T05:24:58;21.77;;;10.15;;
46561;SDS011;32289;42.688;23.330;2023-12-22T05:28:39;23.92;;;10.57;;
46561;SDS011;32289;42.688;23.330;2023-12-22T05:32:20;17.08;;;9.15;;
46561;SDS011;32289;42.688;23.330;2023-12-22T05:36:01;21.35;;;10.35;;
46561;SDS011;32289;42.688;23.330;2023-12-22T05:39:41;29.33;;;10.93;;
46561;SDS011;32289;42.688;23.330;2023-12-22T05:43:23;23.05;;;9.98;;
46561;SDS011;32289;42.688;23.330;2023-12-22T05:47:04;20.13;;;10.13;;
46561;SDS011;32289;42.688;23.330;2023-12-22T05:50:45;20.23;;;9.43;;
46561;SDS011;32289;42.688;23.330;2023-12-22T05:54:26;19.17;;;9.85;;
46561;SDS011;32289;42.688;23.330;2023-12-22T05:58:06;23.15;;;10.38;;
46561;SDS011;32289;42.688;23.330;2023-12-22T06:01:47;24.95;;;10.02;;
46561;SDS011;32289;42.688;23.330;2023-12-22T06:05:28;18.65;;;9.65;;
46561;SDS011;32289;42.688;23.330;2023-12-22T06:09:08;19.65;;;9.98;;
46561;SDS011;32289;42.688;23.330;2023-12-22T06:12:52;27.40;;;10.48;;
46561;SDS011;32289;42.688;23.330;2023-12-22T06:16:32;29.63;;;10.23;;
46561;SDS011;32289;42.688;23.330;2023-12-22T06:20:13;26.33;;;11.07;;
46561;SDS011;32289;42.688;23.330;2023-12-22T06:23:54;24.80;;;10.68;;
46561;SDS011;32289;42.688;23.330;2023-12-22T06:27:34;23.02;;;9.95;;
46561;SDS011;32289;42.688;23.330;2023-12-22T06:31:20;23.98;;;9.88;;
46561;SDS011;32289;42.688;23.330;2023-12-22T06:35:01;23.13;;;9.43;;
46561;SDS011;32289;42.688;23.330;2023-12-22T06:38:42;22.58;;;10.07;;
46561;SDS011;32289;42.688;23.330;2023-12-22T06:42:23;24.58;;;9.63;;
46561;SDS011;32289;42.688;23.330;2023-12-22T06:46:03;23.85;;;11.25;;
46561;SDS011;32289;42.688;23.330;2023-12-22T06:49:57;21.88;;;9.60;;
46561;SDS011;32289;42.688;23.330;2023-12-22T06:53:37;15.18;;;8.63;;
46561;SDS011;32289;42.688;23.330;2023-12-22T06:57:18;19.42;;;9.88;;
46561;SDS011;32289;42.688;23.330;2023-12-22T07:00:59;19.95;;;9.07;;
46561;SDS011;32289;42.688;23.330;2023-12-22T07:08:44;20.73;;;9.40;;
46561;SDS011;32289;42.688;23.330;2023-12-22T07:12:35;23.40;;;10.70;;
46561;SDS011;32289;42.688;23.330;2023-12-22T07:16:15;18.42;;;9.95;;
46561;SDS011;32289;42.688;23.330;2023-12-22T07:19:56;20.25;;;8.55;;
46561;SDS011;32289;42.688;23.330;2023-12-22T07:23:37;21.00;;;9.27;;
46561;SDS011;32289;42.688;23.330;2023-12-22T07:27:18;22.05;;;10.32;;
46561;SDS011;32289;42.688;23.330;2023-12-22T07:30:59;17.13;;;8.88;;
46561;SDS011;32289;42.688;23.330;2023-12-22T07:34:39;20.88;;;9.23;;
46561;SDS011;32289;42.688;23.330;2023-12-22T07:38:20;22.13;;;9.05;;
46561;SDS011;32289;42.688;23.330;2023-12-22T07:42:01;24.02;;;10.35;;
46561;SDS011;32289;42.688;23.330;2023-12-22T07:45:41;25.90;;;10.25;;
46561;SDS011;32289;42.688;23.330;2023-12-22T07:49:22;19.45;;;8.52;;
46561;SDS011;32289;42.688;23.330;2023-12-22T07:53:03;18.80;;;9.20;;
46561;SDS011;32289;42.688;23.330;2023-12-22T07:56:44;25.15;;;10.55;;
46561;SDS011;32289;42.688;23.330;2023-12-22T08:00:25;23.85;;;9.57;;
46561;SDS011;32289;42.688;23.330;2023-12-22T08:04:05;21.08;;;10.23;;
46561;SDS011;32289;42.688;23.330;2023-12-22T08:07:46;21.42;;;10.25;;
46561;SDS011;32289;42.688;23.330;2023-12-22T08:11:27;23.98;;;11.10;;
46561;SDS011;32289;42.688;23.330;2023-12-22T08:15:08;26.67;;;10.50;;
46561;SDS011;32289;42.688;23.330;2023-12-22T08:18:52;20.05;;;9.57;;
46561;SDS011;32289;42.688;23.330;2023-12-22T08:22:33;20.63;;;9.77;;
46561;SDS011;32289;42.688;23.330;2023-12-22T08:26:14;23.15;;;9.38;;
46561;SDS011;32289;42.688;23.330;2023-12-22T08:29:57;20.15;;;10.23;;
46561;SDS011;32289;42.688;23.330;2023-12-22T08:33:37;17.70;;;10.20;;
46561;SDS011;32289;42.688;23.330;2023-12-22T08:37:21;31.23;;;12.55;;
46561;SDS011;32289;42.688;23.330;2023-12-22T08:41:02;28.67;;;10.70;;
46561;SDS011;32289;42.688;23.330;2023-12-22T08:44:43;27.45;;;11.32;;
46561;SDS011;32289;42.688;23.330;2023-12-22T08:48:24;25.08;;;10.02;;
46561;SDS011;32289;42.688;23.330;2023-12-22T08:52:07;25.13;;;11.23;;
46561;SDS011;32289;42.688;23.330;2023-12-22T08:55:48;25.20;;;11.02;;
46561;SDS011;32289;42.688;23.330;2023-12-22T08:59:28;23.27;;;11.45;;
46561;SDS011;32289;42.688;23.330;2023-12-22T09:03:09;23.98;;;11.00;;
46561;SDS011;32289;42.688;23.330;2023-12-22T09:06:50;26.77;;;10.40;;
46561;SDS011;32289;42.688;23.330;2023-12-22T09:10:31;24.30;;;10.48;;
46561;SDS011;32289;42.688;23.330;2023-12-22T09:14:12;25.15;;;11.38;;
46561;SDS011;32289;42.688;23.330;2023-12-22T09:17:53;26.50;;;11.43;;
46561;SDS011;32289;42.688;23.330;2023-12-22T09:21:35;25.92;;;12.43;;
46561;SDS011;32289;42.688;23.330;2023-12-22T09:25:19;24.45;;;11.52;;
46561;SDS011;32289;42.688;23.330;2023-12-22T09:29:00;30.60;;;14.43;;
46561;SDS011;32289;42.688;23.330;2023-12-22T09:32:40;20.55;;;11.27;;
46561;SDS011;32289;42.688;23.330;2023-12-22T09:36:21;22.60;;;10.68;;
46561;SDS011;32289;42.688;23.330;2023-12-22T09:40:01;16.00;;;7.65;;
46561;SDS011;32289;42.688;23.330;2023-12-22T09:43:42;21.10;;;9.20;;
46561;SDS011;32289;42.688;23.330;2023-12-22T09:47:29;19.40;;;9.13;;
46561;SDS011;32289;42.688;23.330;2023-12-22T09:51:17;16.80;;;8.95;;
46561;SDS011;32289;42.688;23.330;2023-12-22T09:54:59;24.75;;;11.85;;
46561;SDS011;32289;42.688;23.330;2023-12-22T09:58:42;28.58;;;11.70;;
46561;SDS011;32289;42.688;23.330;2023-12-22T10:02:28;22.23;;;10.32;;
46561;SDS011;32289;42.688;23.330;2023-12-22T10:06:11;39.65;;;16.52;;
46561;SDS011;32289;42.688;23.330;2023-12-22T10:09:52;31.17;;;11.95;;
46561;SDS011;32289;42.688;23.330;2023-12-22T10:13:36;22.83;;;11.30;;
46561;SDS011;32289;42.688;23.330;2023-12-22T10:17:19;25.23;;;11.77;;
46561;SDS011;32289;42.688;23.330;2023-12-22T10:21:00;25.48;;;11.75;;
46561;SDS011;32289;42.688;23.330;2023-12-22T10:24:41;24.42;;;11.57;;
46561;SDS011;32289;42.688;23.330;2023-12-22T10:28:24;31.40;;;12.07;;
46561;SDS011;32289;42.688;23.330;2023-12-22T10:32:07;27.15;;;12.15;;
46561;SDS011;32289;42.688;23.330;2023-12-22T10:35:53;23.42;;;11.35;;
46561;SDS011;32289;42.688;23.330;2023-12-22T10:39:35;19.63;;;8.32;;
46561;SDS011;32289;42.688;23.330;2023-12-22T10:43:17;23.65;;;8.52;;
46561;SDS011;32289;42.688;23.330;2023-12-22T10:46:58;14.85;;;7.28;;
46561;SDS011;32289;42.688;23.330;2023-12-22T10:50:40;14.73;;;6.47;;
46561;SDS011;32289;42.688;23.330;2023-12-22T10:54:21;19.23;;;6.88;;
46561;SDS011;32289;42.688;23.330;2023-12-22T10:58:02;15.73;;;6.63;;
46561;SDS011;32289;42.688;23.330;2023-12-22T11:01:43;14.35;;;5.32;;
46561;SDS011;32289;42.688;23.330;2023-12-22T11:05:28;12.48;;;5.80;;
46561;SDS011;32289;42.688;23.330;2023-12-22T11:09:09;17.27;;;6.50;;
46561;SDS011;32289;42.688;23.330;2023-12-22T11:12:50;12.43;;;4.95;;
46561;SDS011;32289;42.688;23.330;2023-12-22T11:16:37;11.45;;;5.72;;
46561;SDS011;32289;42.688;23.330;2023-12-22T11:20:21;14.23;;;6.65;;
46561;SDS011;32289;42.688;23.330;2023-12-22T11:24:04;9.90;;;4.70;;
46561;SDS011;32289;42.688;23.330;2023-12-22T11:27:46;13.05;;;5.55;;
46561;SDS011;32289;42.688;23.330;2023-12-22T11:31:31;11.18;;;5.47;;
46561;SDS011;32289;42.688;23.330;2023-12-22T11:35:13;13.25;;;6.93;;
46561;SDS011;32289;42.688;23.330;2023-12-22T11:38:54;14.18;;;6.05;;
46561;SDS011;32289;42.688;23.330;2023-12-22T11:42:43;8.77;;;3.72;;
46561;SDS011;32289;42.688;23.330;2023-12-22T11:46:29;7.32;;;3.58;;
46561;SDS011;32289;42.688;23.330;2023-12-22T11:50:22;6.30;;;3.45;;
46561;SDS011;32289;42.688;23.330;2023-12-22T12:02:15;4.18;;;1.67;;
46561;SDS011;32289;42.688;23.330;2023-12-22T12:09:56;6.47;;;2.75;;
46561;SDS011;32289;42.688;23.330;2023-12-22T12:13:43;6.32;;;2.72;;
46561;SDS011;32289;42.688;23.330;2023-12-22T12:17:25;3.08;;;1.70;;
46561;SDS011;32289;42.688;23.330;2023-12-22T12:21:06;3.35;;;1.70;;
46561;SDS011;32289;42.688;23.330;2023-12-22T12:24:48;8.23;;;1.80;;
46561;SDS011;32289;42.688;23.330;2023-12-22T12:28:29;5.95;;;2.47;;
46561;SDS011;32289;42.688;23.330;2023-12-22T12:32:13;4.32;;;2.17;;
46561;SDS011;32289;42.688;23.330;2023-12-22T12:35:59;5.05;;;2.40;;
46561;SDS011;32289;42.688;23.330;2023-12-22T12:39:40;4.15;;;1.25;;
46561;SDS011;32289;42.688;23.330;2023-12-22T12:43:23;4.15;;;1.58;;
46561;SDS011;32289;42.688;23.330;2023-12-22T12:47:11;4.80;;;1.50;;
46561;SDS011;32289;42.688;23.330;2023-12-22T12:50:53;2.45;;;1.25;;
46561;SDS011;32289;42.688;23.330;2023-12-22T12:54:41;4.90;;;2.05;;
46561;SDS011;32289;42.688;23.330;2023-12-22T12:58:26;3.72;;;1.63;;
46561;SDS011;32289;42.688;23.330;2023-12-22T13:02:17;3.85;;;1.92;;
46561;SDS011;32289;42.688;23.330;2023-12-22T13:06:07;3.15;;;1.50;;
46561;SDS011;32289;42.688;23.330;2023-12-22T13:09:48;3.95;;;1.85;;
46561;SDS011;32289;42.688;23.330;2023-12-22T13:13:29;4.63;;;1.75;;
46561;SDS011;32289;42.688;23.330;2023-12-22T13:17:20;7.38;;;2.55;;
46561;SDS011;32289;42.688;23.330;2023-12-22T13:21:02;6.50;;;2.90;;
46561;SDS011;32289;42.688;23.330;2023-12-22T13:24:53;5.45;;;1.92;;
46561;SDS011;32289;42.688;23.330;2023-12-22T13:28:35;6.75;;;3.00;;
46561;SDS011;32289;42.688;23.330;2023-12-22T13:32:17;7.38;;;3.30;;
46561;SDS011;32289;42.688;23.330;2023-12-22T13:35:59;4.40;;;2.17;;
46561;SDS011;32289;42.688;23.330;2023-12-22T13:39:40;8.57;;;2.83;;
46561;SDS011;32289;42.688;23.330;2023-12-22T13:43:21;5.35;;;2.60;;
46561;SDS011;32289;42.688;23.330;2023-12-22T13:47:03;9.15;;;3.35;;
46561;SDS011;32289;42.688;23.330;2023-12-22T13:50:52;5.55;;;2.50;;
46561;SDS011;32289;42.688;23.330;2023-12-22T13:54:38;7.25;;;3.10;;
46561;SDS011;32289;42.688;23.330;2023-12-22T13:58:19;4.43;;;2.30;;
46561;SDS011;32289;42.688;23.330;2023-12-22T14:02:00;4.47;;;2.05;;
46561;SDS011;32289;42.688;23.330;2023-12-22T14:05:40;5.88;;;2.85;;
46561;SDS011;32289;42.688;23.330;2023-12-22T14:09:21;10.52;;;2.90;;
46561;SDS011;32289;42.688;23.330;2023-12-22T14:13:04;7.32;;;1.90;;
46561;SDS011;32289;42.688;23.330;2023-12-22T14:16:45;3.75;;;2.03;;
46561;SDS011;32289;42.688;23.330;2023-12-22T14:20:26;4.93;;;2.13;;
46561;SDS011;32289;42.688;23.330;2023-12-22T14:24:07;7.40;;;2.60;;
46561;SDS011;32289;42.688;23.330;2023-12-22T14:27:47;2.72;;;1.42;;
46561;SDS011;32289;42.688;23.330;2023-12-22T14:31:28;6.03;;;1.70;;
46561;SDS011;32289;42.688;23.330;2023-12-22T14:35:09;5.32;;;1.70;;
46561;SDS011;32289;42.688;23.330;2023-12-22T14:38:50;3.42;;;1.55;;
46561;SDS011;32289;42.688;23.330;2023-12-22T14:42:31;4.70;;;1.55;;
46561;SDS011;32289;42.688;23.330;2023-12-22T14:46:12;5.70;;;2.05;;
46561;SDS011;32289;42.688;23.330;2023-12-22T14:49:53;6.47;;;2.70;;
46561;SDS011;32289;42.688;23.330;2023-12-22T14:53:33;6.03;;;2.78;;
46561;SDS011;32289;42.688;23.330;2023-12-22T14:57:14;5.15;;;1.90;;
46561;SDS011;32289;42.688;23.330;2023-12-22T15:00:55;4.03;;;1.80;;
46561;SDS011;32289;42.688;23.330;2023-12-22T15:04:36;4.00;;;1.88;;
46561;SDS011;32289;42.688;23.330;2023-12-22T15:08:16;5.05;;;2.00;;
46561;SDS011;32289;42.688;23.330;2023-12-22T15:11:57;9.27;;;3.03;;
46561;SDS011;32289;42.688;23.330;2023-12-22T15:15:38;5.38;;;2.45;;
46561;SDS011;32289;42.688;23.330;2023-12-22T15:19:20;6.82;;;3.53;;
46561;SDS011;32289;42.688;23.330;2023-12-22T15:23:01;5.97;;;2.45;;
46561;SDS011;32289;42.688;23.330;2023-12-22T15:26:42;6.10;;;2.00;;
46561;SDS011;32289;42.688;23.330;2023-12-22T15:30:22;5.43;;;1.90;;
46561;SDS011;32289;42.688;23.330;2023-12-22T15:34:05;5.53;;;2.63;;
46561;SDS011;32289;42.688;23.330;2023-12-22T15:37:45;8.38;;;2.92;;
46561;SDS011;32289;42.688;23.330;2023-12-22T15:41:32;8.25;;;3.05;;
46561;SDS011;32289;42.688;23.330;2023-12-22T15:45:13;6.85;;;2.30;;
46561;SDS011;32289;42.688;23.330;2023-12-22T15:48:54;6.80;;;3.00;;
46561;SDS011;32289;42.688;23.330;2023-12-22T15:52:34;6.97;;;2.88;;
46561;SDS011;32289;42.688;23.330;2023-12-22T15:56:15;7.35;;;3.42;;
46561;SDS011;32289;42.688;23.330;2023-12-22T15:59:56;6.45;;;3.00;;
46561;SDS011;32289;42.688;23.330;2023-12-22T16:03:37;8.38;;;4.53;;
46561;SDS011;32289;42.688;23.330;2023-12-22T16:07:21;8.88;;;3.80;;
46561;SDS011;32289;42.688;23.330;2023-12-22T16:11:04;5.78;;;2.75;;
46561;SDS011;32289;42.688;23.330;2023-12-22T16:14:45;7.00;;;2.67;;
46561;SDS011;32289;42.688;23.330;2023-12-22T16:18:27;7.05;;;3.40;;
46561;SDS011;32289;42.688;23.330;2023-12-22T16:22:08;3.47;;;1.75;;
46561;SDS011;32289;42.688;23.330;2023-12-22T16:25:49;7.90;;;2.45;;
46561;SDS011;32289;42.688;23.330;2023-12-22T16:29:39;9.48;;;2.10;;
46561;SDS011;32289;42.688;23.330;2023-12-22T16:33:20;7.30;;;2.00;;
46561;SDS011;32289;42.688;23.330;2023-12-22T16:37:00;3.13;;;1.63;;
46561;SDS011;32289;42.688;23.330;2023-12-22T16:40:41;3.70;;;1.55;;
46561;SDS011;32289;42.688;23.330;2023-12-22T16:44:24;5.38;;;2.05;;
46561;SDS011;32289;42.688;23.330;2023-12-22T16:48:05;3.85;;;1.65;;
46561;SDS011;32289;42.688;23.330;2023-12-22T16:51:46;7.53;;;2.65;;
46561;SDS011;32289;42.688;23.330;2023-12-22T16:55:27;6.30;;;1.95;;
46561;SDS011;32289;42.688;23.330;2023-12-22T16:59:08;5.60;;;2.53;;
46561;SDS011;32289;42.688;23.330;2023-12-22T17:02:48;9.20;;;3.33;;
46561;SDS011;32289;42.688;23.330;2023-12-22T17:06:29;5.75;;;2.45;;
46561;SDS011;32289;42.688;23.330;2023-12-22T17:10:10;10.40;;;3.20;;
46561;SDS011;32289;42.688;23.330;2023-12-22T17:13:50;8.57;;;2.20;;
46561;SDS011;32289;42.688;23.330;2023-12-22T17:17:31;5.45;;;2.05;;
46561;SDS011;32289;42.688;23.330;2023-12-22T17:21:13;11.40;;;3.97;;
46561;SDS011;32289;42.688;23.330;2023-12-22T17:24:55;4.88;;;2.28;;
46561;SDS011;32289;42.688;23.330;2023-12-22T17:28:36;9.80;;;2.55;;
46561;SDS011;32289;42.688;23.330;2023-12-22T17:32:16;5.43;;;2.53;;
46561;SDS011;32289;42.688;23.330;2023-12-22T17:35:57;4.53;;;2.03;;
46561;SDS011;32289;42.688;23.330;2023-12-22T17:39:38;6.03;;;2.00;;
46561;SDS011;32289;42.688;23.330;2023-12-22T17:43:18;10.52;;;3.22;;
46561;SDS011;32289;42.688;23.330;2023-12-22T17:46:59;6.97;;;2.50;;
46561;SDS011;32289;42.688;23.330;2023-12-22T17:50:43;11.65;;;2.63;;
46561;SDS011;32289;42.688;23.330;2023-12-22T17:54:25;6.97;;;2.42;;
46561;SDS011;32289;42.688;23.330;2023-12-22T17:58:06;7.05;;;2.72;;
46561;SDS011;32289;42.688;23.330;2023-12-22T18:01:47;6.07;;;1.73;;
46561;SDS011;32289;42.688;23.330;2023-12-22T18:05:34;3.75;;;1.65;;
46561;SDS011;32289;42.688;23.330;2023-12-22T18:09:15;11.50;;;2.50;;
46561;SDS011;32289;42.688;23.330;2023-12-22T18:12:56;7.22;;;1.95;;
46561;SDS011;32289;42.688;23.330;2023-12-22T18:16:41;7.80;;;2.50;;
46561;SDS011;32289;42.688;23.330;2023-12-22T18:20:22;5.65;;;3.15;;
46561;SDS011;32289;42.688;23.330;2023-12-22T18:24:04;6.47;;;2.10;;
46561;SDS011;32289;42.688;23.330;2023-12-22T18:27:44;10.10;;;2.80;;
46561;SDS011;32289;42.688;23.330;2023-12-22T18:31:25;5.43;;;2.30;;
46561;SDS011;32289;42.688;23.330;2023-12-22T18:35:06;5.05;;;2.05;;
46561;SDS011;32289;42.688;23.330;2023-12-22T18:38:47;6.35;;;2.92;;
46561;SDS011;32289;42.688;23.330;2023-12-22T18:42:27;10.68;;;3.13;;
46561;SDS011;32289;42.688;23.330;2023-12-22T18:46:08;5.60;;;2.30;;
46561;SDS011;32289;42.688;23.330;2023-12-22T18:49:49;5.95;;;2.60;;
46561;SDS011;32289;42.688;23.330;2023-12-22T18:53:30;8.27;;;2.58;;
46561;SDS011;32289;42.688;23.330;2023-12-22T18:57:11;7.15;;;3.00;;
46561;SDS011;32289;42.688;23.330;2023-12-22T19:00:52;12.95;;;3.85;;
46561;SDS011;32289;42.688;23.330;2023-12-22T19:04:32;7.72;;;2.65;;
46561;SDS011;32289;42.688;23.330;2023-12-22T19:08:13;6.45;;;2.00;;
46561;SDS011;32289;42.688;23.330;2023-12-22T19:11:53;8.52;;;2.22;;
46561;SDS011;32289;42.688;23.330;2023-12-22T19:15:34;6.00;;;2.20;;
46561;SDS011;32289;42.688;23.330;2023-12-22T19:19:15;9.07;;;2.40;;
46561;SDS011;32289;42.688;23.330;2023-12-22T19:22:56;19.77;;;6.07;;
46561;SDS011;32289;42.688;23.330;2023-12-22T19:26:36;5.28;;;1.50;;
46561;SDS011;32289;42.688;23.330;2023-12-22T19:30:17;3.30;;;2.08;;
46561;SDS011;32289;42.688;23.330;2023-12-22T19:33:58;5.03;;;1.98;;
46561;SDS011;32289;42.688;23.330;2023-12-22T19:37:41;8.02;;;1.38;;
46561;SDS011;32289;42.688;23.330;2023-12-22T19:41:22;2.63;;;1.05;;
46561;SDS011;32289;42.688;23.330;2023-12-22T19:45:03;2.00;;;1.30;;
46561;SDS011;32289;42.688;23.330;2023-12-22T19:48:45;2.88;;;0.90;;
46561;SDS011;32289;42.688;23.330;2023-12-22T19:52:25;2.45;;;1.17;;
46561;SDS011;32289;42.688;23.330;2023-12-22T19:56:09;5.22;;;4.32;;
46561;SDS011;32289;42.688;23.330;2023-12-22T19:59:50;3.13;;;1.35;;
46561;SDS011;32289;42.688;23.330;2023-12-22T20:03:31;4.50;;;1.92;;
46561;SDS011;32289;42.688;23.330;2023-12-22T20:07:12;2.72;;;1.25;;
46561;SDS011;32289;42.688;23.330;2023-12-22T20:10:52;5.30;;;1.42;;
46561;SDS011;32289;42.688;23.330;2023-12-22T20:14:34;2.92;;;1.27;;
46561;SDS011;32289;42.688;23.330;2023-12-22T20:18:16;4.53;;;2.85;;
46561;SDS011;32289;42.688;23.330;2023-12-22T20:21:57;3.35;;;1.10;;
46561;SDS011;32289;42.688;23.330;2023-12-22T20:25:38;3.70;;;1.35;;
46561;SDS011;32289;42.688;23.330;2023-12-22T20:29:20;3.05;;;0.90;;
46561;SDS011;32289;42.688;23.330;2023-12-22T20:33:02;3.70;;;1.40;;
46561;SDS011;32289;42.688;23.330;2023-12-22T20:36:43;2.20;;;1.20;;
46561;SDS011;32289;42.688;23.330;2023-12-22T20:40:25;3.92;;;1.48;;
46561;SDS011;32289;42.688;23.330;2023-12-22T20:44:06;5.57;;;2.00;;
46561;SDS011;32289;42.688;23.330;2023-12-22T20:47:47;9.52;;;2.40;;
46561;SDS011;32289;42.688;23.330;2023-12-22T20:51:29;3.97;;;1.88;;
46561;SDS011;32289;42.688;23.330;2023-12-22T20:55:12;2.78;;;1.25;;
46561;SDS011;32289;42.688;23.330;2023-12-22T20:58:53;2.75;;;1.25;;
46561;SDS011;32289;42.688;23.330;2023-12-22T21:02:33;2.55;;;1.00;;
46561;SDS011;32289;42.688;23.330;2023-12-22T21:06:19;4.63;;;1.95;;
46561;SDS011;32289;42.688;23.330;2023-12-22T21:10:00;7.22;;;1.70;;
46561;SDS011;32289;42.688;23.330;2023-12-22T21:13:41;2.10;;;1.10;;
46561;SDS011;32289;42.688;23.330;2023-12-22T21:17:23;2.72;;;1.00;;
46561;SDS011;32289;42.688;23.330;2023-12-22T21:21:07;1.17;;;0.65;;
46561;SDS011;32289;42.688;23.330;2023-12-22T21:24:51;1.70;;;0.80;;
46561;SDS011;32289;42.688;23.330;2023-12-22T21:28:32;2.58;;;0.90;;
46561;SDS011;32289;42.688;23.330;2023-12-22T21:32:13;2.20;;;1.10;;
46561;SDS011;32289;42.688;23.330;2023-12-22T21:35:54;2.33;;;0.98;;
46561;SDS011;32289;42.688;23.330;2023-12-22T21:39:40;2.65;;;1.08;;
46561;SDS011;32289;42.688;23.330;2023-12-22T21:43:21;1.30;;;0.57;;
46561;SDS011;32289;42.688;23.330;2023-12-22T21:47:04;2.88;;;1.05;;
46561;SDS011;32289;42.688;23.330;2023-12-22T21:50:45;2.70;;;0.88;;
46561;SDS011;32289;42.688;23.330;2023-12-22T21:54:25;4.30;;;1.15;;
46561;SDS011;32289;42.688;23.330;2023-12-22T21:58:07;2.05;;;0.93;;
46561;SDS011;32289;42.688;23.330;2023-12-22T22:01:47;0.93;;;0.40;;
46561;SDS011;32289;42.688;23.330;2023-12-22T22:05:28;2.10;;;0.85;;